sensor_id;sensor_type;location;lat;lon;timestamp;P1;durP1;ratioP1;P2;durP2;ratioP2
66298;SDS011;53098;47.658;8.578;2023-08-17T00:01:41;6.55;;;2.35;;
66298;SDS011;53098;47.658;8.578;2023-08-17T00:04:07;7.60;;;2.58;;
66298;SDS011;53098;47.658;8.578;2023-08-17T00:06:32;6.70;;;2.22;;
66298;SDS011;53098;47.658;8.578;2023-08-17T00:08:58;6.03;;;2.65;;
66298;SDS011;53098;47.658;8.578;2023-08-17T00:11:24;6.18;;;2.42;;
66298;SDS011;53098;47.658;8.578;2023-08-17T00:13:49;7.57;;;2.65;;
66298;SDS011;53098;47.658;8.578;2023-08-17T00:16:15;7.18;;;2.30;;
66298;SDS011;53098;47.658;8.578;2023-08-17T00:18:40;6.63;;;3.00;;
66298;SDS011;53098;47.658;8.578;2023-08-17T00:21:05;6.50;;;2.58;;
66298;SDS011;53098;47.658;8.578;2023-08-17T00:23:31;7.88;;;2.90;;
66298;SDS011;53098;47.658;8.578;2023-08-17T00:25:56;7.97;;;2.55;;
66298;SDS011;53098;47.658;8.578;2023-08-17T00:28:22;6.03;;;2.40;;
66298;SDS011;53098;47.658;8.578;2023-08-17T00:30:47;9.60;;;2.70;;
66298;SDS011;53098;47.658;8.578;2023-08-17T00:33:12;6.68;;;2.40;;
66298;SDS011;53098;47.658;8.578;2023-08-17T00:35:38;7.35;;;2.67;;
66298;SDS011;53098;47.658;8.578;2023-08-17T00:38:03;7.45;;;2.53;;
66298;SDS011;53098;47.658;8.578;2023-08-17T00:40:28;5.60;;;2.58;;
66298;SDS011;53098;47.658;8.578;2023-08-17T00:42:54;6.05;;;2.78;;
66298;SDS011;53098;47.658;8.578;2023-08-17T00:45:19;7.32;;;2.20;;
66298;SDS011;53098;47.658;8.578;2023-08-17T00:47:47;6.65;;;2.28;;
66298;SDS011;53098;47.658;8.578;2023-08-17T00:50:12;8.27;;;2.78;;
66298;SDS011;53098;47.658;8.578;2023-08-17T00:52:39;6.93;;;2.53;;
66298;SDS011;53098;47.658;8.578;2023-08-17T00:55:05;5.43;;;2.47;;
66298;SDS011;53098;47.658;8.578;2023-08-17T00:57:32;7.32;;;2.42;;
66298;SDS011;53098;47.658;8.578;2023-08-17T00:59:58;5.28;;;2.47;;
66298;SDS011;53098;47.658;8.578;2023-08-17T01:02:24;5.53;;;2.42;;
66298;SDS011;53098;47.658;8.578;2023-08-17T01:04:50;7.70;;;2.83;;
66298;SDS011;53098;47.658;8.578;2023-08-17T01:07:15;7.38;;;2.63;;
66298;SDS011;53098;47.658;8.578;2023-08-17T01:09:41;7.65;;;2.67;;
66298;SDS011;53098;47.658;8.578;2023-08-17T01:12:10;6.97;;;2.53;;
66298;SDS011;53098;47.658;8.578;2023-08-17T01:15:12;4.75;;;2.42;;
66298;SDS011;53098;47.658;8.578;2023-08-17T01:17:43;6.65;;;2.83;;
66298;SDS011;53098;47.658;8.578;2023-08-17T01:20:14;4.80;;;2.15;;
66298;SDS011;53098;47.658;8.578;2023-08-17T01:22:40;10.50;;;2.67;;
66298;SDS011;53098;47.658;8.578;2023-08-17T01:25:07;5.88;;;2.47;;
66298;SDS011;53098;47.658;8.578;2023-08-17T01:27:36;8.18;;;2.70;;
66298;SDS011;53098;47.658;8.578;2023-08-17T01:30:04;8.23;;;2.75;;
66298;SDS011;53098;47.658;8.578;2023-08-17T01:32:33;6.43;;;2.28;;
66298;SDS011;53098;47.658;8.578;2023-08-17T01:37:53;6.57;;;2.40;;
66298;SDS011;53098;47.658;8.578;2023-08-17T01:40:20;9.05;;;2.50;;
66298;SDS011;53098;47.658;8.578;2023-08-17T01:42:46;6.60;;;2.38;;
66298;SDS011;53098;47.658;8.578;2023-08-17T01:45:13;7.20;;;2.70;;
66298;SDS011;53098;47.658;8.578;2023-08-17T01:47:38;6.63;;;2.20;;
66298;SDS011;53098;47.658;8.578;2023-08-17T01:50:04;12.48;;;2.63;;
66298;SDS011;53098;47.658;8.578;2023-08-17T01:52:30;7.22;;;2.95;;
66298;SDS011;53098;47.658;8.578;2023-08-17T01:54:55;6.47;;;2.42;;
66298;SDS011;53098;47.658;8.578;2023-08-17T01:57:20;5.80;;;2.33;;
66298;SDS011;53098;47.658;8.578;2023-08-17T01:59:46;7.50;;;2.60;;
66298;SDS011;53098;47.658;8.578;2023-08-17T02:02:11;6.32;;;2.60;;
66298;SDS011;53098;47.658;8.578;2023-08-17T02:04:37;6.32;;;2.55;;
66298;SDS011;53098;47.658;8.578;2023-08-17T02:07:02;6.68;;;2.80;;
66298;SDS011;53098;47.658;8.578;2023-08-17T02:09:28;7.90;;;2.90;;
66298;SDS011;53098;47.658;8.578;2023-08-17T02:11:53;6.25;;;2.75;;
66298;SDS011;53098;47.658;8.578;2023-08-17T02:14:19;6.65;;;2.50;;
66298;SDS011;53098;47.658;8.578;2023-08-17T02:16:44;5.05;;;2.17;;
66298;SDS011;53098;47.658;8.578;2023-08-17T02:19:09;7.72;;;2.50;;
66298;SDS011;53098;47.658;8.578;2023-08-17T02:21:35;7.47;;;2.58;;
66298;SDS011;53098;47.658;8.578;2023-08-17T02:24:00;6.93;;;2.30;;
66298;SDS011;53098;47.658;8.578;2023-08-17T02:26:25;11.63;;;2.80;;
66298;SDS011;53098;47.658;8.578;2023-08-17T02:28:51;7.43;;;2.33;;
66298;SDS011;53098;47.658;8.578;2023-08-17T02:31:16;8.20;;;3.13;;
66298;SDS011;53098;47.658;8.578;2023-08-17T02:33:41;8.48;;;2.50;;
66298;SDS011;53098;47.658;8.578;2023-08-17T02:36:07;8.75;;;2.85;;
66298;SDS011;53098;47.658;8.578;2023-08-17T02:38:32;8.30;;;2.70;;
66298;SDS011;53098;47.658;8.578;2023-08-17T02:40:58;6.28;;;2.22;;
66298;SDS011;53098;47.658;8.578;2023-08-17T02:43:23;5.93;;;2.55;;
66298;SDS011;53098;47.658;8.578;2023-08-17T02:45:48;8.15;;;2.35;;
66298;SDS011;53098;47.658;8.578;2023-08-17T02:48:14;5.95;;;2.60;;
66298;SDS011;53098;47.658;8.578;2023-08-17T02:50:39;7.70;;;2.63;;
66298;SDS011;53098;47.658;8.578;2023-08-17T02:53:05;6.10;;;2.50;;
66298;SDS011;53098;47.658;8.578;2023-08-17T02:55:30;5.22;;;2.67;;
66298;SDS011;53098;47.658;8.578;2023-08-17T02:57:55;6.10;;;2.55;;
66298;SDS011;53098;47.658;8.578;2023-08-17T03:00:21;7.70;;;3.00;;
66298;SDS011;53098;47.658;8.578;2023-08-17T03:02:46;6.50;;;2.55;;
66298;SDS011;53098;47.658;8.578;2023-08-17T03:05:12;7.00;;;2.63;;
66298;SDS011;53098;47.658;8.578;2023-08-17T03:07:37;9.30;;;2.60;;
66298;SDS011;53098;47.658;8.578;2023-08-17T03:10:02;7.97;;;2.88;;
66298;SDS011;53098;47.658;8.578;2023-08-17T03:12:28;5.43;;;2.42;;
66298;SDS011;53098;47.658;8.578;2023-08-17T03:14:54;7.78;;;2.45;;
66298;SDS011;53098;47.658;8.578;2023-08-17T03:17:19;5.70;;;2.78;;
66298;SDS011;53098;47.658;8.578;2023-08-17T03:19:44;6.60;;;2.75;;
66298;SDS011;53098;47.658;8.578;2023-08-17T03:22:10;6.72;;;2.60;;
66298;SDS011;53098;47.658;8.578;2023-08-17T03:24:35;6.45;;;2.50;;
66298;SDS011;53098;47.658;8.578;2023-08-17T03:27:01;6.45;;;2.45;;
66298;SDS011;53098;47.658;8.578;2023-08-17T03:29:26;5.68;;;2.70;;
66298;SDS011;53098;47.658;8.578;2023-08-17T03:31:51;6.45;;;2.67;;
66298;SDS011;53098;47.658;8.578;2023-08-17T03:34:17;6.30;;;2.50;;
66298;SDS011;53098;47.658;8.578;2023-08-17T03:36:42;6.72;;;2.55;;
66298;SDS011;53098;47.658;8.578;2023-08-17T03:39:07;7.30;;;2.40;;
66298;SDS011;53098;47.658;8.578;2023-08-17T03:41:33;7.75;;;2.83;;
66298;SDS011;53098;47.658;8.578;2023-08-17T03:43:58;6.28;;;2.50;;
66298;SDS011;53098;47.658;8.578;2023-08-17T03:46:24;7.15;;;2.58;;
66298;SDS011;53098;47.658;8.578;2023-08-17T03:48:49;8.30;;;2.90;;
66298;SDS011;53098;47.658;8.578;2023-08-17T03:51:14;7.32;;;2.92;;
66298;SDS011;53098;47.658;8.578;2023-08-17T03:53:40;6.93;;;2.88;;
66298;SDS011;53098;47.658;8.578;2023-08-17T03:56:05;7.47;;;2.80;;
66298;SDS011;53098;47.658;8.578;2023-08-17T03:58:31;8.88;;;3.53;;
66298;SDS011;53098;47.658;8.578;2023-08-17T04:00:56;7.32;;;2.65;;
66298;SDS011;53098;47.658;8.578;2023-08-17T04:03:22;8.25;;;2.78;;
66298;SDS011;53098;47.658;8.578;2023-08-17T04:05:47;7.20;;;2.20;;
66298;SDS011;53098;47.658;8.578;2023-08-17T04:08:13;7.60;;;2.90;;
66298;SDS011;53098;47.658;8.578;2023-08-17T04:10:38;4.88;;;2.33;;
66298;SDS011;53098;47.658;8.578;2023-08-17T04:13:04;7.75;;;3.03;;
66298;SDS011;53098;47.658;8.578;2023-08-17T04:15:29;8.10;;;2.90;;
66298;SDS011;53098;47.658;8.578;2023-08-17T04:17:55;9.32;;;3.08;;
66298;SDS011;53098;47.658;8.578;2023-08-17T04:20:21;6.00;;;2.60;;
66298;SDS011;53098;47.658;8.578;2023-08-17T04:22:46;12.20;;;3.00;;
66298;SDS011;53098;47.658;8.578;2023-08-17T04:25:12;8.10;;;3.33;;
66298;SDS011;53098;47.658;8.578;2023-08-17T04:27:38;8.68;;;2.80;;
66298;SDS011;53098;47.658;8.578;2023-08-17T04:30:03;9.25;;;2.90;;
66298;SDS011;53098;47.658;8.578;2023-08-17T04:32:29;6.93;;;2.58;;
66298;SDS011;53098;47.658;8.578;2023-08-17T04:34:54;6.18;;;2.45;;
66298;SDS011;53098;47.658;8.578;2023-08-17T04:37:20;5.85;;;2.67;;
66298;SDS011;53098;47.658;8.578;2023-08-17T04:39:45;10.02;;;2.70;;
66298;SDS011;53098;47.658;8.578;2023-08-17T04:42:11;9.48;;;2.88;;
66298;SDS011;53098;47.658;8.578;2023-08-17T04:44:36;8.70;;;3.05;;
66298;SDS011;53098;47.658;8.578;2023-08-17T04:47:02;8.25;;;2.92;;
66298;SDS011;53098;47.658;8.578;2023-08-17T04:49:27;8.02;;;3.00;;
66298;SDS011;53098;47.658;8.578;2023-08-17T04:51:53;10.10;;;2.75;;
66298;SDS011;53098;47.658;8.578;2023-08-17T04:54:18;6.07;;;2.65;;
66298;SDS011;53098;47.658;8.578;2023-08-17T04:56:44;7.60;;;2.72;;
66298;SDS011;53098;47.658;8.578;2023-08-17T04:59:09;7.97;;;2.90;;
66298;SDS011;53098;47.658;8.578;2023-08-17T05:01:35;6.93;;;2.92;;
66298;SDS011;53098;47.658;8.578;2023-08-17T05:04:00;6.95;;;2.90;;
66298;SDS011;53098;47.658;8.578;2023-08-17T05:06:29;5.35;;;2.58;;
66298;SDS011;53098;47.658;8.578;2023-08-17T05:08:55;7.38;;;2.88;;
66298;SDS011;53098;47.658;8.578;2023-08-17T05:11:21;7.75;;;2.83;;
66298;SDS011;53098;47.658;8.578;2023-08-17T05:13:46;7.35;;;3.20;;
66298;SDS011;53098;47.658;8.578;2023-08-17T05:16:12;8.85;;;2.90;;
66298;SDS011;53098;47.658;8.578;2023-08-17T05:18:37;9.68;;;3.30;;
66298;SDS011;53098;47.658;8.578;2023-08-17T05:21:03;6.80;;;2.80;;
66298;SDS011;53098;47.658;8.578;2023-08-17T05:23:28;6.88;;;3.00;;
66298;SDS011;53098;47.658;8.578;2023-08-17T05:25:54;7.70;;;2.53;;
66298;SDS011;53098;47.658;8.578;2023-08-17T05:28:19;6.68;;;3.05;;
66298;SDS011;53098;47.658;8.578;2023-08-17T05:30:45;8.77;;;2.80;;
66298;SDS011;53098;47.658;8.578;2023-08-17T05:33:10;7.13;;;2.90;;
66298;SDS011;53098;47.658;8.578;2023-08-17T05:35:35;8.07;;;3.22;;
66298;SDS011;53098;47.658;8.578;2023-08-17T05:38:01;8.73;;;2.95;;
66298;SDS011;53098;47.658;8.578;2023-08-17T05:40:26;6.47;;;2.70;;
66298;SDS011;53098;47.658;8.578;2023-08-17T05:42:54;5.65;;;2.55;;
66298;SDS011;53098;47.658;8.578;2023-08-17T05:45:20;6.85;;;2.88;;
66298;SDS011;53098;47.658;8.578;2023-08-17T05:47:46;7.20;;;2.60;;
66298;SDS011;53098;47.658;8.578;2023-08-17T05:50:11;6.28;;;2.50;;
66298;SDS011;53098;47.658;8.578;2023-08-17T05:52:36;6.20;;;2.72;;
66298;SDS011;53098;47.658;8.578;2023-08-17T05:55:02;6.15;;;3.00;;
66298;SDS011;53098;47.658;8.578;2023-08-17T05:57:27;7.28;;;3.33;;
66298;SDS011;53098;47.658;8.578;2023-08-17T05:59:52;7.18;;;3.30;;
66298;SDS011;53098;47.658;8.578;2023-08-17T06:02:18;8.48;;;3.58;;
66298;SDS011;53098;47.658;8.578;2023-08-17T06:04:43;9.02;;;4.30;;
66298;SDS011;53098;47.658;8.578;2023-08-17T06:07:09;10.35;;;3.85;;
66298;SDS011;53098;47.658;8.578;2023-08-17T06:09:34;10.15;;;4.00;;
66298;SDS011;53098;47.658;8.578;2023-08-17T06:11:59;9.38;;;4.10;;
66298;SDS011;53098;47.658;8.578;2023-08-17T06:14:25;8.38;;;3.42;;
66298;SDS011;53098;47.658;8.578;2023-08-17T06:16:51;7.28;;;3.47;;
66298;SDS011;53098;47.658;8.578;2023-08-17T06:19:16;9.77;;;4.05;;
66298;SDS011;53098;47.658;8.578;2023-08-17T06:21:42;10.43;;;4.38;;
66298;SDS011;53098;47.658;8.578;2023-08-17T06:24:07;13.20;;;4.55;;
66298;SDS011;53098;47.658;8.578;2023-08-17T06:26:32;10.85;;;4.30;;
66298;SDS011;53098;47.658;8.578;2023-08-17T06:28:58;11.25;;;4.28;;
66298;SDS011;53098;47.658;8.578;2023-08-17T06:31:23;10.82;;;4.68;;
66298;SDS011;53098;47.658;8.578;2023-08-17T06:33:48;11.38;;;4.20;;
66298;SDS011;53098;47.658;8.578;2023-08-17T06:36:14;11.63;;;3.85;;
66298;SDS011;53098;47.658;8.578;2023-08-17T06:38:39;7.95;;;3.80;;
66298;SDS011;53098;47.658;8.578;2023-08-17T06:41:05;8.45;;;4.05;;
66298;SDS011;53098;47.658;8.578;2023-08-17T06:43:30;11.07;;;4.35;;
66298;SDS011;53098;47.658;8.578;2023-08-17T06:45:56;11.52;;;4.30;;
66298;SDS011;53098;47.658;8.578;2023-08-17T06:48:21;9.35;;;3.85;;
66298;SDS011;53098;47.658;8.578;2023-08-17T06:50:47;11.48;;;4.22;;
66298;SDS011;53098;47.658;8.578;2023-08-17T06:53:12;9.43;;;4.28;;
66298;SDS011;53098;47.658;8.578;2023-08-17T06:55:37;9.60;;;3.42;;
66298;SDS011;53098;47.658;8.578;2023-08-17T06:58:03;8.35;;;3.35;;
66298;SDS011;53098;47.658;8.578;2023-08-17T07:00:28;9.35;;;4.05;;
66298;SDS011;53098;47.658;8.578;2023-08-17T07:02:54;9.25;;;3.53;;
66298;SDS011;53098;47.658;8.578;2023-08-17T07:05:19;9.38;;;3.60;;
66298;SDS011;53098;47.658;8.578;2023-08-17T07:07:44;6.60;;;3.03;;
66298;SDS011;53098;47.658;8.578;2023-08-17T07:10:10;7.40;;;3.47;;
66298;SDS011;53098;47.658;8.578;2023-08-17T07:12:36;7.68;;;3.60;;
66298;SDS011;53098;47.658;8.578;2023-08-17T07:15:02;9.68;;;4.35;;
66298;SDS011;53098;47.658;8.578;2023-08-17T07:17:28;11.10;;;3.70;;
66298;SDS011;53098;47.658;8.578;2023-08-17T07:19:53;8.23;;;4.22;;
66298;SDS011;53098;47.658;8.578;2023-08-17T07:22:19;8.35;;;3.80;;
66298;SDS011;53098;47.658;8.578;2023-08-17T07:24:44;9.20;;;4.38;;
66298;SDS011;53098;47.658;8.578;2023-08-17T07:27:09;9.40;;;3.83;;
66298;SDS011;53098;47.658;8.578;2023-08-17T07:29:35;10.45;;;3.72;;
66298;SDS011;53098;47.658;8.578;2023-08-17T07:32:00;8.60;;;3.80;;
66298;SDS011;53098;47.658;8.578;2023-08-17T07:34:26;10.45;;;3.85;;
66298;SDS011;53098;47.658;8.578;2023-08-17T07:36:51;6.45;;;3.40;;
66298;SDS011;53098;47.658;8.578;2023-08-17T07:39:16;7.40;;;3.42;;
66298;SDS011;53098;47.658;8.578;2023-08-17T07:41:42;7.60;;;2.97;;
66298;SDS011;53098;47.658;8.578;2023-08-17T07:44:07;9.63;;;3.63;;
66298;SDS011;53098;47.658;8.578;2023-08-17T07:46:33;8.40;;;3.00;;
66298;SDS011;53098;47.658;8.578;2023-08-17T07:48:58;7.32;;;3.17;;
66298;SDS011;53098;47.658;8.578;2023-08-17T07:51:23;7.65;;;2.72;;
66298;SDS011;53098;47.658;8.578;2023-08-17T07:53:49;7.50;;;2.95;;
66298;SDS011;53098;47.658;8.578;2023-08-17T07:56:14;7.00;;;2.83;;
66298;SDS011;53098;47.658;8.578;2023-08-17T07:58:39;5.30;;;2.35;;
66298;SDS011;53098;47.658;8.578;2023-08-17T08:01:05;9.05;;;3.35;;
66298;SDS011;53098;47.658;8.578;2023-08-17T08:03:30;6.82;;;2.78;;
66298;SDS011;53098;47.658;8.578;2023-08-17T08:05:56;7.35;;;3.03;;
66298;SDS011;53098;47.658;8.578;2023-08-17T08:08:21;8.27;;;2.90;;
66298;SDS011;53098;47.658;8.578;2023-08-17T08:10:47;7.75;;;3.05;;
66298;SDS011;53098;47.658;8.578;2023-08-17T08:13:12;6.25;;;2.92;;
66298;SDS011;53098;47.658;8.578;2023-08-17T08:15:37;7.55;;;3.17;;
66298;SDS011;53098;47.658;8.578;2023-08-17T08:18:03;9.82;;;3.40;;
66298;SDS011;53098;47.658;8.578;2023-08-17T08:20:29;7.85;;;3.03;;
66298;SDS011;53098;47.658;8.578;2023-08-17T08:22:54;8.85;;;3.40;;
66298;SDS011;53098;47.658;8.578;2023-08-17T08:25:20;7.32;;;3.38;;
66298;SDS011;53098;47.658;8.578;2023-08-17T08:27:48;10.70;;;4.03;;
66298;SDS011;53098;47.658;8.578;2023-08-17T08:30:13;12.95;;;3.72;;
66298;SDS011;53098;47.658;8.578;2023-08-17T08:32:39;8.02;;;3.58;;
66298;SDS011;53098;47.658;8.578;2023-08-17T08:35:05;7.65;;;2.88;;
66298;SDS011;53098;47.658;8.578;2023-08-17T08:37:34;13.57;;;4.15;;
66298;SDS011;53098;47.658;8.578;2023-08-17T08:39:59;9.27;;;3.55;;
66298;SDS011;53098;47.658;8.578;2023-08-17T08:42:25;14.27;;;3.75;;
66298;SDS011;53098;47.658;8.578;2023-08-17T08:44:50;12.50;;;4.05;;
66298;SDS011;53098;47.658;8.578;2023-08-17T08:47:16;11.30;;;4.13;;
66298;SDS011;53098;47.658;8.578;2023-08-17T08:49:59;8.68;;;3.45;;
66298;SDS011;53098;47.658;8.578;2023-08-17T08:52:27;14.98;;;3.60;;
66298;SDS011;53098;47.658;8.578;2023-08-17T08:55:17;12.27;;;3.25;;
66298;SDS011;53098;47.658;8.578;2023-08-17T08:57:43;8.93;;;4.10;;
66298;SDS011;53098;47.658;8.578;2023-08-17T09:00:09;8.70;;;3.85;;
66298;SDS011;53098;47.658;8.578;2023-08-17T09:02:37;12.13;;;4.13;;
66298;SDS011;53098;47.658;8.578;2023-08-17T09:05:05;10.48;;;3.85;;
66298;SDS011;53098;47.658;8.578;2023-08-17T09:07:31;11.07;;;3.45;;
66298;SDS011;53098;47.658;8.578;2023-08-17T09:09:58;6.78;;;3.17;;
66298;SDS011;53098;47.658;8.578;2023-08-17T09:12:24;7.25;;;3.92;;
66298;SDS011;53098;47.658;8.578;2023-08-17T09:14:49;7.20;;;3.25;;
66298;SDS011;53098;47.658;8.578;2023-08-17T09:17:22;9.18;;;3.03;;
66298;SDS011;53098;47.658;8.578;2023-08-17T09:19:48;6.63;;;3.05;;
66298;SDS011;53098;47.658;8.578;2023-08-17T09:22:14;8.45;;;3.20;;
66298;SDS011;53098;47.658;8.578;2023-08-17T09:24:47;10.20;;;3.53;;
66298;SDS011;53098;47.658;8.578;2023-08-17T09:27:13;7.20;;;3.13;;
66298;SDS011;53098;47.658;8.578;2023-08-17T09:29:38;6.95;;;2.97;;
66298;SDS011;53098;47.658;8.578;2023-08-17T09:32:08;10.55;;;3.17;;
66298;SDS011;53098;47.658;8.578;2023-08-17T09:34:33;12.25;;;3.33;;
66298;SDS011;53098;47.658;8.578;2023-08-17T09:37:05;10.82;;;3.22;;
66298;SDS011;53098;47.658;8.578;2023-08-17T09:39:31;8.02;;;3.42;;
66298;SDS011;53098;47.658;8.578;2023-08-17T09:42:00;17.13;;;4.15;;
66298;SDS011;53098;47.658;8.578;2023-08-17T09:44:26;10.60;;;3.42;;
66298;SDS011;53098;47.658;8.578;2023-08-17T09:46:54;12.45;;;3.17;;
66298;SDS011;53098;47.658;8.578;2023-08-17T09:49:22;13.85;;;3.30;;
66298;SDS011;53098;47.658;8.578;2023-08-17T09:51:48;9.07;;;3.00;;
66298;SDS011;53098;47.658;8.578;2023-08-17T09:54:20;8.15;;;3.28;;
66298;SDS011;53098;47.658;8.578;2023-08-17T09:56:47;9.10;;;3.40;;
66298;SDS011;53098;47.658;8.578;2023-08-17T09:59:15;8.07;;;3.33;;
66298;SDS011;53098;47.658;8.578;2023-08-17T10:01:40;6.65;;;3.25;;
66298;SDS011;53098;47.658;8.578;2023-08-17T10:04:07;11.75;;;3.67;;
66298;SDS011;53098;47.658;8.578;2023-08-17T10:06:34;11.10;;;3.70;;
66298;SDS011;53098;47.658;8.578;2023-08-17T10:09:03;6.97;;;2.95;;
66298;SDS011;53098;47.658;8.578;2023-08-17T10:11:29;11.98;;;3.15;;
66298;SDS011;53098;47.658;8.578;2023-08-17T10:14:00;11.95;;;3.15;;
66298;SDS011;53098;47.658;8.578;2023-08-17T10:17:01;8.30;;;3.15;;
66298;SDS011;53098;47.658;8.578;2023-08-17T10:19:41;7.47;;;3.15;;
66298;SDS011;53098;47.658;8.578;2023-08-17T10:23:12;11.55;;;3.10;;
66298;SDS011;53098;47.658;8.578;2023-08-17T10:25:28;8.00;;;3.42;;
66298;SDS011;53098;47.658;8.578;2023-08-17T10:27:55;7.63;;;3.80;;
66298;SDS011;53098;47.658;8.578;2023-08-17T10:30:21;8.15;;;3.72;;
66298;SDS011;53098;47.658;8.578;2023-08-17T10:32:46;6.93;;;3.30;;
66298;SDS011;53098;47.658;8.578;2023-08-17T10:35:13;10.98;;;3.92;;
66298;SDS011;53098;47.658;8.578;2023-08-17T10:37:39;12.15;;;3.75;;
66298;SDS011;53098;47.658;8.578;2023-08-17T10:40:06;8.25;;;3.70;;
66298;SDS011;53098;47.658;8.578;2023-08-17T10:42:32;11.25;;;3.78;;
66298;SDS011;53098;47.658;8.578;2023-08-17T10:44:59;7.93;;;3.75;;
66298;SDS011;53098;47.658;8.578;2023-08-17T10:47:25;9.30;;;3.85;;
66298;SDS011;53098;47.658;8.578;2023-08-17T10:49:52;8.10;;;3.65;;
66298;SDS011;53098;47.658;8.578;2023-08-17T10:52:25;9.60;;;3.88;;
66298;SDS011;53098;47.658;8.578;2023-08-17T10:54:51;8.10;;;3.90;;
66298;SDS011;53098;47.658;8.578;2023-08-17T10:57:37;10.93;;;4.82;;
66298;SDS011;53098;47.658;8.578;2023-08-17T11:00:25;9.85;;;4.15;;
66298;SDS011;53098;47.658;8.578;2023-08-17T11:02:53;13.93;;;4.03;;
66298;SDS011;53098;47.658;8.578;2023-08-17T11:08:06;6.80;;;3.60;;
66298;SDS011;53098;47.658;8.578;2023-08-17T11:10:32;7.75;;;3.35;;
66298;SDS011;53098;47.658;8.578;2023-08-17T11:12:58;9.80;;;3.72;;
66298;SDS011;53098;47.658;8.578;2023-08-17T11:15:34;8.13;;;3.30;;
66298;SDS011;53098;47.658;8.578;2023-08-17T11:18:01;8.82;;;3.58;;
66298;SDS011;53098;47.658;8.578;2023-08-17T11:20:27;10.48;;;3.58;;
66298;SDS011;53098;47.658;8.578;2023-08-17T11:22:52;8.60;;;3.60;;
66298;SDS011;53098;47.658;8.578;2023-08-17T11:25:18;7.18;;;3.58;;
66298;SDS011;53098;47.658;8.578;2023-08-17T11:27:43;10.73;;;3.50;;
66298;SDS011;53098;47.658;8.578;2023-08-17T11:30:09;9.10;;;3.78;;
66298;SDS011;53098;47.658;8.578;2023-08-17T11:32:35;12.57;;;3.42;;
66298;SDS011;53098;47.658;8.578;2023-08-17T11:35:01;7.78;;;2.88;;
66298;SDS011;53098;47.658;8.578;2023-08-17T11:37:27;6.38;;;2.80;;
66298;SDS011;53098;47.658;8.578;2023-08-17T11:39:52;10.50;;;3.15;;
66298;SDS011;53098;47.658;8.578;2023-08-17T11:42:17;7.82;;;3.20;;
66298;SDS011;53098;47.658;8.578;2023-08-17T11:44:43;6.90;;;3.20;;
66298;SDS011;53098;47.658;8.578;2023-08-17T11:47:09;7.32;;;2.60;;
66298;SDS011;53098;47.658;8.578;2023-08-17T11:49:35;8.00;;;2.58;;
66298;SDS011;53098;47.658;8.578;2023-08-17T11:52:01;8.32;;;2.47;;
66298;SDS011;53098;47.658;8.578;2023-08-17T11:54:26;7.90;;;2.50;;
66298;SDS011;53098;47.658;8.578;2023-08-17T11:56:52;7.55;;;2.63;;
66298;SDS011;53098;47.658;8.578;2023-08-17T11:59:17;9.30;;;2.88;;
66298;SDS011;53098;47.658;8.578;2023-08-17T12:01:44;7.25;;;2.20;;
66298;SDS011;53098;47.658;8.578;2023-08-17T12:04:09;6.85;;;2.38;;
66298;SDS011;53098;47.658;8.578;2023-08-17T12:06:36;6.25;;;2.33;;
66298;SDS011;53098;47.658;8.578;2023-08-17T12:09:07;11.07;;;2.40;;
66298;SDS011;53098;47.658;8.578;2023-08-17T12:11:33;7.85;;;2.35;;
66298;SDS011;53098;47.658;8.578;2023-08-17T12:13:58;7.65;;;2.50;;
66298;SDS011;53098;47.658;8.578;2023-08-17T12:16:24;7.43;;;2.10;;
66298;SDS011;53098;47.658;8.578;2023-08-17T12:18:49;6.10;;;2.55;;
66298;SDS011;53098;47.658;8.578;2023-08-17T12:21:15;9.80;;;2.10;;
66298;SDS011;53098;47.658;8.578;2023-08-17T12:23:41;7.80;;;2.47;;
66298;SDS011;53098;47.658;8.578;2023-08-17T12:26:06;6.72;;;1.98;;
66298;SDS011;53098;47.658;8.578;2023-08-17T12:28:32;12.25;;;2.90;;
66298;SDS011;53098;47.658;8.578;2023-08-17T12:31:01;8.77;;;2.40;;
66298;SDS011;53098;47.658;8.578;2023-08-17T12:33:27;7.10;;;2.22;;
66298;SDS011;53098;47.658;8.578;2023-08-17T12:35:53;8.85;;;2.92;;
66298;SDS011;53098;47.658;8.578;2023-08-17T12:38:19;7.70;;;2.35;;
66298;SDS011;53098;47.658;8.578;2023-08-17T12:40:44;9.82;;;3.05;;
66298;SDS011;53098;47.658;8.578;2023-08-17T12:43:09;6.00;;;2.42;;
66298;SDS011;53098;47.658;8.578;2023-08-17T12:45:35;9.35;;;2.30;;
66298;SDS011;53098;47.658;8.578;2023-08-17T12:48:00;7.80;;;2.25;;
66298;SDS011;53098;47.658;8.578;2023-08-17T12:50:26;8.43;;;2.50;;
66298;SDS011;53098;47.658;8.578;2023-08-17T12:52:51;11.85;;;2.60;;
66298;SDS011;53098;47.658;8.578;2023-08-17T12:55:16;7.85;;;2.40;;
66298;SDS011;53098;47.658;8.578;2023-08-17T12:57:42;11.65;;;2.58;;
66298;SDS011;53098;47.658;8.578;2023-08-17T13:00:07;9.13;;;2.70;;
66298;SDS011;53098;47.658;8.578;2023-08-17T13:02:33;8.75;;;2.70;;
66298;SDS011;53098;47.658;8.578;2023-08-17T13:04:58;10.68;;;2.47;;
66298;SDS011;53098;47.658;8.578;2023-08-17T13:07:24;9.25;;;2.63;;
66298;SDS011;53098;47.658;8.578;2023-08-17T13:09:49;11.52;;;2.90;;
66298;SDS011;53098;47.658;8.578;2023-08-17T13:12:14;8.32;;;2.70;;
66298;SDS011;53098;47.658;8.578;2023-08-17T13:14:40;11.60;;;3.20;;
66298;SDS011;53098;47.658;8.578;2023-08-17T13:17:05;8.40;;;3.20;;
66298;SDS011;53098;47.658;8.578;2023-08-17T13:19:31;10.10;;;3.40;;
66298;SDS011;53098;47.658;8.578;2023-08-17T13:21:56;11.32;;;3.03;;
66298;SDS011;53098;47.658;8.578;2023-08-17T13:24:22;9.45;;;3.60;;
66298;SDS011;53098;47.658;8.578;2023-08-17T13:26:47;9.23;;;3.42;;
66298;SDS011;53098;47.658;8.578;2023-08-17T13:29:13;10.95;;;3.55;;
66298;SDS011;53098;47.658;8.578;2023-08-17T13:31:38;9.25;;;3.40;;
66298;SDS011;53098;47.658;8.578;2023-08-17T13:34:04;8.90;;;3.55;;
66298;SDS011;53098;47.658;8.578;2023-08-17T13:36:29;8.05;;;3.42;;
66298;SDS011;53098;47.658;8.578;2023-08-17T13:38:54;8.52;;;4.20;;
66298;SDS011;53098;47.658;8.578;2023-08-17T13:41:20;10.38;;;3.58;;
66298;SDS011;53098;47.658;8.578;2023-08-17T13:43:45;10.63;;;3.83;;
66298;SDS011;53098;47.658;8.578;2023-08-17T13:46:11;9.02;;;3.08;;
66298;SDS011;53098;47.658;8.578;2023-08-17T13:48:37;7.45;;;3.22;;
66298;SDS011;53098;47.658;8.578;2023-08-17T13:51:02;8.80;;;3.22;;
66298;SDS011;53098;47.658;8.578;2023-08-17T13:53:28;7.97;;;3.22;;
66298;SDS011;53098;47.658;8.578;2023-08-17T13:55:53;9.90;;;3.83;;
66298;SDS011;53098;47.658;8.578;2023-08-17T13:58:19;7.43;;;3.53;;
66298;SDS011;53098;47.658;8.578;2023-08-17T14:00:44;8.20;;;3.03;;
66298;SDS011;53098;47.658;8.578;2023-08-17T14:03:09;8.95;;;3.80;;
66298;SDS011;53098;47.658;8.578;2023-08-17T14:05:35;7.40;;;3.00;;
66298;SDS011;53098;47.658;8.578;2023-08-17T14:08:00;14.60;;;3.90;;
66298;SDS011;53098;47.658;8.578;2023-08-17T14:10:26;8.63;;;3.67;;
66298;SDS011;53098;47.658;8.578;2023-08-17T14:12:51;9.90;;;3.40;;
66298;SDS011;53098;47.658;8.578;2023-08-17T14:15:16;8.02;;;3.38;;
66298;SDS011;53098;47.658;8.578;2023-08-17T14:17:42;11.48;;;3.70;;
66298;SDS011;53098;47.658;8.578;2023-08-17T14:20:07;8.93;;;3.67;;
66298;SDS011;53098;47.658;8.578;2023-08-17T14:22:33;11.60;;;4.20;;
66298;SDS011;53098;47.658;8.578;2023-08-17T14:24:59;10.20;;;3.63;;
66298;SDS011;53098;47.658;8.578;2023-08-17T14:27:24;8.65;;;3.30;;
66298;SDS011;53098;47.658;8.578;2023-08-17T14:29:49;10.73;;;3.30;;
66298;SDS011;53098;47.658;8.578;2023-08-17T14:32:15;8.82;;;3.70;;
66298;SDS011;53098;47.658;8.578;2023-08-17T14:34:40;7.15;;;3.20;;
66298;SDS011;53098;47.658;8.578;2023-08-17T14:37:06;8.45;;;3.25;;
66298;SDS011;53098;47.658;8.578;2023-08-17T14:39:31;9.52;;;3.40;;
66298;SDS011;53098;47.658;8.578;2023-08-17T14:41:56;12.75;;;3.33;;
66298;SDS011;53098;47.658;8.578;2023-08-17T14:44:22;10.73;;;3.03;;
66298;SDS011;53098;47.658;8.578;2023-08-17T14:46:47;11.85;;;3.20;;